RJFR/KKJ METAR and TAF weather

Enter ICAO airport designator
Station Type Date Time Source
RJFR METAR 2021/01/22 05:00 UTC NOAA

RJFR 220500Z VRB02KT 6000 FEW005 BKN040 BKN080 11/10 Q1016


Station Type Date Time Source
RJFR Decoded METAR 2021/01/22 05:00 UTC NOAA

Kitakyushu Airport, Japan (RJFR) 33-50N 130-57E 6M
Jan 22, 2021 - 12:00 AM EST / 2021.01.22 0500 UTC
Wind: Variable at 2 MPH (2 KT):0
Visibility: 3 mile(s):0
Sky conditions: mostly cloudy
Temperature: 51 F (11 C)
Dew Point: 50 F (10 C)
Relative Humidity: 93%
Pressure (altimeter): 30.00 in. Hg (1016 hPa)
ob: RJFR 220500Z VRB02KT 6000 FEW005 BKN040 BKN080 11/10 Q1016
cycle: 5

Station Type Date Time Source
RJFR TAF 2021/01/22 06:30 UTC NOAA

TAF RJFR 220508Z 2206/2312 02005KT 8000 -SHRA FEW008 SCT015 BKN030
TEMPO 2212/2215 4000 -SHRA BR FEW005 BKN008 BKN020
TEMPO 2215/2300 3000 -SHRA BR FEW005 BKN008 BKN015

Example: see airport list